Houghton, Washington
Current Conditions -  °F | °C
As of 1:53 AM on Sunday 26 Oct 2014 (Local Time) from KBFI Reporting Station
Scattered Clouds Scattered Clouds  
Wind Chill: 55°   Ceiling: Unl
Heat Index: 55°   Visibility: 10mi
Dew Point: 44°   Wind: 16mph
Humidity: 67%   Direction: 190°S
Pressure: 29.8"   Gusts: 28mph
Location:  47.6755°N, 122.187°W
Report Text: KBFI 260853Z 19014G24KT 10SM SCT100 13/07 A2980 RMK AO2 SLP092 T01280067 51044
Loading
Personal Weather Stations






























Interactive Weather Map
Tropical Storm Tracking
New forecast layout! Learn more

10-Day Weather Forecast

Advertisements
Track Severe Weather on mobile